Baltic, SD

1:47 PM CDT on October 20, 2014 (GMT -0500)
477th | Change Station
CLOSE
Current Station
Personal Weather Station
Location: Baltic, SD
Elevation: 1562 ft
Nearby Weather Stations

Elev 1562 ft 43.71 °N, 96.67 °W | Updated 10 minutes ago

Clear
Clear
70.0 °F
Feels Like 70.0 °F
N
3.7
Wind Variable Wind from ENE

Today
High -- | Low -- °F
--% Chance of Precip.
Yesterday
High -- | Low -- °F
Precip. -- in
7:47 AM 6:35 PM
Waning Crescent, 9% visible
Pressure 30.08 in
Visibility 10.0 miles
Clouds Few 25000 ft
Dew Point 44 °F
Humidity 39%
Rainfall 0.00 in
Snow Depth Not available.
UV 4 out of 12
Pollen 1.70 out of 12
Air Quality Not available.
Flu Activity Sporadic
METAR KFSD 201756Z 34012KT 10SM FEW250 20/06 A3007 RMK AO2 SLP184 T02000056 10200 20022 58010

More Conditions Fewer Conditions

Pressure 30.08 in
Visibility 10.0 miles
Clouds Few 25000 ft
Dew Point 44 °F
Humidity 39%
Rainfall 0.00 in
Snow Depth Not available.
UV 4 out of 12
Pollen 1.70 out of 12
Air Quality Not available.
Flu Activity Sporadic
METAR KFSD 201756Z 34012KT 10SM FEW250 20/06 A3007 RMK AO2 SLP184 T02000056 10200 20022 58010

More Conditions Fewer Conditions

10-Day Weather Forecast

Almanac

Astronomy

Oct. 20, 2014 Rise Set
Actual Time 7:47 AM CDT 6:35 PM CDT
Civil Twilight 7:18 AM CDT 7:04 PM CDT
Nautical Twilight 6:44 AM CDT 7:37 PM CDT
Astronomical Twilight 6:11 AM CDT 8:10 PM CDT
Moon 4:30 AM CDT 5:03 PM CDT
Length of Visible Light 11h 46m
Length of Day
10h 47m
Waning Crescent, 9% of the Moon is Illuminated
Today
Waning Crescent
Oct 23
New
Oct 30
First Quarter
Nov 6
Full
Nov 14
Last Quarter

Today's Extremes

State Highs State Lows

Community

WunderPhotos

Upload Photos

1,763,463 photos uploaded!

Nearby

Snow Depth

Station Depth Elevation
North Rapid Creek 0 in 6130 ft

Earthquake Activity

City Distance Mag. Time & Date
No recent earthquake activity has been reported nearby.
Minimum magnitude displayed is 2.5.

Coastal Water Temperatures

Place Temperature
No Stations Reporting

Nearby Weather Stations